Time;durP1;ratioP1;P1;durP2;ratioP2;P2;SDS_P1;SDS_P2;PMS_P1;PMS_P2;Temp;Humidity;BMP_temperature;BMP_pressure;BME280_temperature;BME280_humidity;BME280_pressure;Samples;Min_cycle;Max_cycle;Signal;HPM_P1;HPM_P2
2022/06/19 00:01:22;;;;;;;;;;;;;;;19.39;61.76;100673.63;5190401;28;20034;-76
2022/06/19 00:03:55;;;;;;;11.93;2.93;;;;;;;19.04;63.75;100672.75;5189853;28;20339;-75
2022/06/19 00:06:27;;;;;;;13.55;3.10;;;;;;;18.99;63.75;100667.72;5189435;28;20034;-75
2022/06/19 00:08:59;;;;;;;;;;;;;;;19.23;62.14;100664.78;5190451;28;20027;-76
2022/06/19 00:11:30;;;;;;;11.80;3.83;;;;;;;18.85;63.26;100672.81;5190327;28;19921;-75
2022/06/19 00:14:03;;;;;;;9.43;2.93;;;;;;;18.71;63.84;100665.56;5189591;28;20055;-75
2022/06/19 00:16:35;;;;;;;11.18;3.13;;;;;;;18.94;63.44;100664.44;5189083;28;20141;-74
2022/06/19 00:19:07;;;;;;;11.15;3.28;;;;;;;18.81;63.64;100656.25;5190013;28;20483;-74
2022/06/19 00:21:38;;;;;;;11.47;3.37;;;;;;;18.57;64.33;100647.72;5189909;28;20036;-75
2022/06/19 00:24:10;;;;;;;12.33;2.70;;;;;;;18.64;63.78;100650.94;5189645;28;20022;-75
2022/06/19 00:26:41;;;;;;;11.00;2.80;;;;;;;18.51;63.83;100664.72;5189370;28;20430;-76
2022/06/19 00:29:12;;;;;;;10.30;2.60;;;;;;;18.37;64.35;100675.06;5189192;28;20037;-75
2022/06/19 00:31:44;;;;;;;10.50;2.93;;;;;;;18.40;63.99;100680.19;5191796;28;20038;-75
2022/06/19 00:34:15;;;;;;;11.83;2.67;;;;;;;18.22;64.33;100695.09;5193404;28;20023;-75
2022/06/19 00:36:49;;;;;;;13.00;3.17;;;;;;;18.13;64.84;100698.16;5192685;28;20022;-75
2022/06/19 00:39:21;;;;;;;11.38;2.97;;;;;;;18.11;65.11;100686.84;5192975;28;20064;-74
2022/06/19 00:41:52;;;;;;;9.43;3.17;;;;;;;18.19;64.50;100690.84;5192796;28;20030;-74
2022/06/19 00:44:23;;;;;;;12.90;2.77;;;;;;;18.12;64.32;100684.13;5192915;28;20026;-76
2022/06/19 00:47:08;;;;;;;9.40;3.23;;;;;;;18.03;64.69;100684.53;5192617;28;20480;-74
2022/06/19 00:49:51;;;;;;;11.65;3.75;;;;;;;18.14;64.36;100690.19;5192389;28;20023;-75
2022/06/19 00:52:29;;;;;;;9.73;3.25;;;;;;;18.02;64.58;100686.34;5192189;28;20046;-76
2022/06/19 00:55:11;;;;;;;11.93;4.45;;;;;;;17.70;64.43;100690.38;5192874;28;20478;-76
2022/06/19 00:57:47;;;;;;;14.32;3.80;;;;;;;17.71;64.08;100688.59;5192110;28;20031;-74
2022/06/19 01:00:28;;;;;;;11.45;4.03;;;;;;;17.63;64.08;100681.03;5192202;28;20051;-76
2022/06/19 01:03:17;;;;;;;11.55;3.40;;;;;;;17.49;64.04;100692.19;5192496;28;20601;-73
2022/06/19 01:05:50;;;;;;;12.95;4.43;;;;;;;17.40;63.19;100680.22;5260199;28;20041;-75
2022/06/19 01:08:22;;;;;;;;;;;;;;;17.69;61.99;100678.13;5192764;28;20045;-72
2022/06/19 01:10:53;;;;;;;10.32;2.83;;;;;;;17.36;62.84;100668.13;5192394;28;19922;-76
2022/06/19 01:13:27;;;;;;;11.45;3.03;;;;;;;17.27;63.17;100671.16;5192594;28;20042;-74
2022/06/19 01:16:01;;;;;;;18.70;4.38;;;;;;;17.17;62.64;100680.38;5192427;28;20044;-75
2022/06/19 01:18:35;;;;;;;15.27;3.45;;;;;;;17.21;62.76;100710.91;5191889;28;20434;-75
2022/06/19 01:21:32;;;;;;;14.63;3.90;;;;;;;17.27;62.30;100818.69;5192399;28;20110;-75
2022/06/19 01:24:26;;;;;;;14.20;3.30;;;;;;;17.03;61.94;100860.84;5192387;28;20322;-75
2022/06/19 01:27:01;;;;;;;12.38;4.55;;;;;;;16.80;62.73;100790.63;5192027;28;20102;-73
2022/06/19 01:29:35;;;;;;;9.75;3.20;;;;;;;16.76;62.82;100734.63;5192099;28;20026;-75
2022/06/19 01:32:07;;;;;;;11.45;3.45;;;;;;;16.66;62.24;100770.09;5191852;28;20480;-73
2022/06/19 01:34:41;;;;;;;14.95;3.60;;;;;;;16.65;61.65;100815.78;5192208;28;20026;-74
2022/06/19 01:37:20;;;;;;;9.18;2.45;;;;;;;16.52;61.78;100804.00;5192225;28;20030;-75
2022/06/19 01:39:57;;;;;;;13.38;3.17;;;;;;;16.56;60.98;100758.22;5191939;28;20026;-74
2022/06/19 01:42:30;;;;;;;14.77;3.33;;;;;;;16.40;59.97;100797.41;5191729;28;20141;-70
2022/06/19 01:45:01;;;;;;;11.23;3.08;;;;;;;16.33;59.94;100841.50;5191615;28;20041;-74
2022/06/19 01:47:33;;;;;;;11.27;2.67;;;;;;;16.31;60.19;100801.25;5191772;28;20035;-75
2022/06/19 01:50:07;;;;;;;17.57;3.93;;;;;;;16.25;59.78;100771.69;5191636;28;20829;-75
2022/06/19 01:52:39;;;;;;;14.55;3.60;;;;;;;16.15;59.31;100794.81;5191976;28;20276;-75
2022/06/19 01:55:14;;;;;;;18.17;3.58;;;;;;;16.18;59.61;100797.31;5191887;28;20034;-74
2022/06/19 01:57:50;;;;;;;16.15;3.50;;;;;;;16.17;59.04;100795.63;5192088;28;20030;-74
2022/06/19 02:00:25;;;;;;;11.90;3.85;;;;;;;16.11;58.38;100819.50;5191763;28;20391;-75
2022/06/19 02:03:10;;;;;;;14.75;3.78;;;;;;;16.01;57.44;100800.56;5192032;28;20040;-74
2022/06/19 02:05:42;;;;;;;21.50;4.28;;;;;;;15.95;56.88;100806.03;5191953;28;20069;-74
2022/06/19 02:08:18;;;;;;;17.13;3.60;;;;;;;15.77;57.49;100831.19;5191484;28;20102;-75
2022/06/19 02:10:51;;;;;;;12.90;3.15;;;;;;;15.67;57.19;100810.41;5192323;28;20046;-76
2022/06/19 02:13:23;;;;;;;11.32;3.85;;;;;;;15.64;56.79;100810.53;5191825;28;20515;-75
2022/06/19 02:15:55;;;;;;;17.52;5.32;;;;;;;15.61;56.05;100810.63;5191781;28;20497;-75
2022/06/19 02:18:31;;;;;;;15.47;3.97;;;;;;;15.56;55.80;100806.44;5191368;28;20105;-74
2022/06/19 02:21:05;;;;;;;11.35;2.80;;;;;;;15.61;55.27;100796.63;5191669;28;20030;-75
2022/06/19 02:23:38;;;;;;;11.18;3.55;;;;;;;15.57;54.89;100803.78;5192018;28;20037;-75
2022/06/19 02:26:10;;;;;;;;;;;;;;;15.83;54.94;100821.31;5191942;28;20026;-76
2022/06/19 02:28:45;;;;;;;17.88;3.72;;;;;;;15.54;54.97;100808.28;5191288;28;19922;-74
2022/06/19 02:31:20;;;;;;;9.20;2.92;;;;;;;15.63;55.02;100813.19;5191123;28;20026;-75
2022/06/19 02:33:55;;;;;;;13.55;3.00;;;;;;;15.53;54.78;100836.28;5191467;28;20038;-73
2022/06/19 02:36:42;;;;;;;13.32;3.20;;;;;;;15.53;55.26;100823.16;5191398;28;20026;-73
2022/06/19 02:39:35;;;;;;;11.93;3.75;;;;;;;15.49;55.26;100840.78;5257797;28;20046;-75
2022/06/19 02:42:20;;;;;;;12.43;2.85;;;;;;;15.49;54.35;100830.28;5191299;28;20044;-75
2022/06/19 02:44:54;;;;;;;11.45;2.70;;;;;;;15.52;54.56;100838.97;5191270;28;20121;-74
2022/06/19 02:47:28;;;;;;;12.80;3.35;;;;;;;15.53;54.27;100835.44;5190892;28;20834;-74
2022/06/19 02:49:59;;;;;;;13.00;2.50;;;;;;;15.58;54.25;100815.97;5190333;28;20042;-75
2022/06/19 02:52:31;;;;;;;12.73;2.73;;;;;;;15.44;54.12;100820.81;5191170;28;20556;-75
2022/06/19 02:55:04;;;;;;;10.95;3.60;;;;;;;15.55;53.60;100809.97;5190387;28;20031;-73
2022/06/19 02:57:35;;;;;;;7.82;3.03;;;;;;;15.58;53.55;100826.50;5191032;28;20154;-74
2022/06/19 03:00:12;;;;;;;13.30;3.83;;;;;;;15.59;53.08;100880.78;5190780;28;20075;-74
2022/06/19 03:02:45;;;;;;;9.45;3.17;;;;;;;15.60;52.96;100945.56;5190099;28;20054;-75
2022/06/19 03:05:23;;;;;;;14.68;3.45;;;;;;;15.50;52.73;100916.09;5190998;28;20035;-75
2022/06/19 03:07:55;;;;;;;13.50;3.20;;;;;;;15.46;52.98;100882.06;5190843;28;20038;-74
2022/06/19 03:10:27;;;;;;;13.40;3.40;;;;;;;15.49;52.66;100855.72;5190999;28;20033;-76
2022/06/19 03:12:59;;;;;;;12.33;2.70;;;;;;;15.46;52.21;100846.16;5190493;28;20046;-75
2022/06/19 03:15:31;;;;;;;9.75;2.30;;;;;;;15.36;52.79;100864.88;5190553;28;20113;-76
2022/06/19 03:18:03;;;;;;;10.13;2.60;;;;;;;15.35;52.47;100837.75;5190423;28;21079;-76
2022/06/19 03:20:34;;;;;;;10.23;2.70;;;;;;;15.31;51.89;100825.63;5190323;28;20072;-74
2022/06/19 03:23:06;;;;;;;13.23;2.67;;;;;;;15.35;52.03;100813.25;5190546;28;20469;-75
2022/06/19 03:25:37;;;;;;;10.77;2.43;;;;;;;15.25;51.42;100810.94;5190380;28;20034;-76
2022/06/19 03:28:09;;;;;;;10.30;2.77;;;;;;;15.23;51.65;100804.00;5190312;28;20046;-75
2022/06/19 03:30:40;;;;;;;9.23;1.77;;;;;;;15.21;51.62;100825.03;5189122;28;20038;-74
2022/06/19 03:33:12;;;;;;;5.70;2.00;;;;;;;15.14;51.76;100841.91;5190070;28;20479;-77
2022/06/19 03:35:44;;;;;;;6.80;1.83;;;;;;;15.10;52.21;100819.28;5190672;28;20106;-77
2022/06/19 03:38:16;;;;;;;9.68;2.22;;;;;;;15.08;51.43;100802.72;5256388;28;20027;-76
2022/06/19 03:40:47;;;;;;;8.03;2.17;;;;;;;15.08;51.00;100800.09;5189971;28;20087;-76
2022/06/19 03:43:18;;;;;;;8.10;3.10;;;;;;;15.04;51.52;100812.47;5190036;28;20057;-76
2022/06/19 03:45:50;;;;;;;9.90;2.30;;;;;;;15.03;51.61;100794.97;5190097;28;20042;-74
2022/06/19 03:48:21;;;;;;;6.10;2.03;;;;;;;14.95;51.97;100742.72;5190031;28;20116;-76
2022/06/19 03:50:52;;;;;;;11.17;2.30;;;;;;;15.02;51.62;100761.78;5189787;28;20034;-76
2022/06/19 03:53:24;;;;;;;7.67;2.07;;;;;;;15.10;51.22;100806.16;5190283;28;20096;-75
2022/06/19 03:55:55;;;;;;;8.57;2.50;;;;;;;15.16;51.25;100881.25;5190387;28;20037;-76
2022/06/19 03:58:45;;;;;;;11.67;2.77;;;;;;;15.07;51.87;100909.50;5190097;28;20107;-76
2022/06/19 04:01:26;;;;;;;7.30;1.40;;;;;;;15.08;51.47;100886.72;5190162;28;20034;-75
2022/06/19 04:03:58;;;;;;;6.43;1.70;;;;;;;14.96;51.58;100814.47;5256769;28;20038;-77
2022/06/19 04:06:34;;;;;;;6.18;1.83;;;;;;;15.05;51.26;100844.81;5190176;28;20061;-75
2022/06/19 04:09:08;;;;;;;8.13;2.17;;;;;;;15.15;51.95;100838.41;5190149;28;20472;-76
2022/06/19 04:11:40;;;;;;;7.00;2.13;;;;;;;15.04;51.54;100798.50;5189697;28;20031;-75
2022/06/19 04:14:13;;;;;;;;;;;;;;;15.28;51.16;100779.31;5190200;28;20050;-77
2022/06/19 04:16:44;;;;;;;11.82;2.88;;;;;;;15.14;51.08;100752.66;5189746;28;19917;-76
2022/06/19 04:19:15;;;;;;;6.93;2.10;;;;;;;15.16;50.40;100715.84;5189815;28;20030;-75
2022/06/19 04:21:47;;;;;;;7.33;1.60;;;;;;;15.00;50.21;100708.44;5189824;28;20031;-76
2022/06/19 04:24:21;;;;;;;7.73;1.87;;;;;;;15.21;51.70;100698.16;5189506;28;20459;-75
2022/06/19 04:26:53;;;;;;;7.78;1.98;;;;;;;15.12;51.07;100670.47;5189581;28;20204;-76
2022/06/19 04:29:24;;;;;;;7.67;2.20;;;;;;;15.14;51.60;100653.72;5190010;28;20022;-73
2022/06/19 04:31:56;;;;;;;7.27;2.10;;;;;;;15.17;51.82;100658.03;5189834;28;20079;-76
2022/06/19 04:34:27;;;;;;;6.17;2.03;;;;;;;15.25;52.71;100653.38;5189365;28;20041;-76
2022/06/19 04:36:59;;;;;;;8.70;2.30;;;;;;;15.27;52.86;100650.69;5256235;28;20030;-74
2022/06/19 04:39:30;;;;;;;12.80;2.07;;;;;;;15.30;52.35;100654.06;5257000;28;20468;-76
2022/06/19 04:42:02;;;;;;;8.57;2.30;;;;;;;15.36;53.24;100660.88;5189762;28;20456;-76
2022/06/19 04:44:34;;;;;;;8.57;1.90;;;;;;;15.35;53.82;100663.56;5189036;28;20114;-74
2022/06/19 04:47:06;;;;;;;10.13;3.00;;;;;;;15.31;53.44;100660.16;5189435;28;20451;-76
2022/06/19 04:49:37;;;;;;;13.40;2.80;;;;;;;15.39;53.42;100657.28;5189302;28;20054;-75
2022/06/19 04:52:08;;;;;;;13.43;2.30;;;;;;;15.31;53.17;100619.03;5189457;28;20078;-75
2022/06/19 04:54:41;;;;;;;9.40;2.17;;;;;;;15.26;53.09;100596.44;5189108;28;20030;-76
2022/06/19 04:57:13;;;;;;;5.55;2.05;;;;;;;15.36;54.11;100599.59;5189346;28;20042;-75
2022/06/19 04:59:44;;;;;;;8.30;1.90;;;;;;;15.32;53.41;100591.81;5189360;28;20023;-75
2022/06/19 05:02:15;;;;;;;7.70;2.33;;;;;;;15.34;53.60;100597.03;5188987;28;20030;-76
2022/06/19 05:04:50;;;;;;;7.67;2.33;;;;;;;15.44;54.92;100611.56;5188315;28;20073;-74
2022/06/19 05:07:21;;;;;;;9.90;2.00;;;;;;;15.43;54.70;100617.72;5188859;28;20035;-74
2022/06/19 05:09:53;;;;;;;8.47;2.20;;;;;;;15.45;54.76;100641.31;5188654;28;20495;-77
2022/06/19 05:12:24;;;;;;;7.70;2.10;;;;;;;15.38;54.35;100681.84;5189165;28;20038;-76
2022/06/19 05:14:56;;;;;;;12.00;2.95;;;;;;;15.54;56.69;100687.44;5188578;28;20041;-76
2022/06/19 05:17:27;;;;;;;13.13;2.33;;;;;;;15.45;54.90;100676.28;5189562;28;20126;-76
2022/06/19 05:19:59;;;;;;;10.53;2.67;;;;;;;15.57;54.37;100656.63;5192476;28;20164;-75
2022/06/19 05:22:31;;;;;;;10.57;2.88;;;;;;;15.60;55.63;100661.78;5189870;28;20121;-77
2022/06/19 05:25:04;;;;;;;10.97;2.43;;;;;;;15.77;55.16;100684.00;5194922;28;20555;-78
2022/06/19 05:27:43;;;;;;;10.68;2.35;;;;;;;15.74;54.00;100690.19;5192997;28;20069;-78
2022/06/19 05:30:14;;;;;;;7.78;1.88;;;;;;;16.08;54.46;100720.53;5191613;28;20026;-76
2022/06/19 05:32:46;;;;;;;10.80;2.50;;;;;;;16.14;54.15;100735.25;5192927;28;20034;-77
2022/06/19 05:35:17;;;;;;;7.87;2.33;;;;;;;16.23;53.94;100735.75;5191783;28;20452;-77
2022/06/19 05:37:48;;;;;;;6.87;2.07;;;;;;;16.38;51.84;100765.03;5191077;28;20373;-77
2022/06/19 05:40:20;;;;;;;10.17;2.87;;;;;;;16.47;51.78;100775.22;5192594;28;20048;-77
2022/06/19 05:42:51;;;;;;;10.53;2.63;;;;;;;16.50;52.21;100792.66;5192473;28;20134;-78
2022/06/19 05:45:22;;;;;;;11.03;2.33;;;;;;;16.78;52.63;100808.28;5257810;28;20050;-75
2022/06/19 05:47:54;;;;;;;8.50;2.67;;;;;;;17.06;52.49;100810.72;5191465;28;20376;-77
2022/06/19 05:50:25;;;;;;;8.27;2.47;;;;;;;16.98;49.79;100794.34;5191128;28;20125;-76
2022/06/19 05:52:57;;;;;;;8.50;2.10;;;;;;;17.01;50.86;100782.84;5189202;28;20037;-76
2022/06/19 05:55:28;;;;;;;10.07;2.60;;;;;;;17.02;52.25;100793.31;5191522;28;20053;-76
2022/06/19 05:57:59;;;;;;;8.50;3.23;;;;;;;16.98;52.65;100822.47;5191352;28;20173;-77
2022/06/19 06:00:31;;;;;;;10.43;2.60;;;;;;;16.78;51.43;100839.88;5191624;28;20392;-76
2022/06/19 06:03:02;;;;;;;11.50;3.20;;;;;;;16.85;52.07;100828.19;5191428;28;20239;-76
2022/06/19 06:05:34;;;;;;;7.67;2.30;;;;;;;16.58;51.84;100835.31;5191311;28;20654;-77
2022/06/19 06:08:05;;;;;;;7.77;2.43;;;;;;;16.39;52.63;100838.66;5190791;28;20101;-75
2022/06/19 06:10:37;;;;;;;13.43;2.27;;;;;;;16.36;53.02;100865.06;5258665;28;20392;-76
2022/06/19 06:13:09;;;;;;;8.85;2.85;;;;;;;16.30;53.37;100898.63;5190676;28;20467;-76
2022/06/19 06:15:40;;;;;;;12.77;2.30;;;;;;;16.45;55.73;100892.81;5191097;28;20045;-75
2022/06/19 06:18:12;;;;;;;9.97;2.60;;;;;;;16.40;53.92;100890.34;5190529;28;20036;-76
2022/06/19 06:20:43;;;;;;;9.85;2.53;;;;;;;16.30;54.72;100877.56;5190899;28;20037;-76
2022/06/19 06:23:14;;;;;;;7.53;2.60;;;;;;;16.11;54.55;100901.88;5190842;28;20095;-76
2022/06/19 06:25:46;;;;;;;9.27;2.87;;;;;;;16.01;54.49;100987.25;5190596;28;20026;-76
2022/06/19 06:28:17;;;;;;;9.73;3.70;;;;;;;15.96;54.64;100989.16;5257274;28;20394;-75
2022/06/19 06:30:48;;;;;;;9.60;2.63;;;;;;;15.85;55.16;100997.38;5189892;28;20063;-76
2022/06/19 06:33:20;;;;;;;7.17;2.20;;;;;;;15.79;57.35;101027.34;5190666;28;20113;-75
2022/06/19 06:35:51;;;;;;;13.53;2.83;;;;;;;15.73;58.29;101080.06;5190751;28;20107;-77
2022/06/19 06:38:24;;;;;;;10.13;3.10;;;;;;;15.68;61.57;101108.22;5190540;28;20408;-76
2022/06/19 06:40:56;;;;;;;7.97;2.38;;;;;;;15.66;60.56;101121.44;5190707;28;20018;-77
2022/06/19 06:43:28;;;;;;;7.00;2.05;;;;;;;15.61;61.44;101110.19;5190747;28;20037;-75
2022/06/19 06:46:07;;;;;;;9.53;2.23;;;;;;;15.63;64.00;101129.41;5190825;28;20026;-75
2022/06/19 06:48:39;;;;;;;10.15;2.50;;;;;;;15.69;63.70;101112.59;5190445;28;20038;-75
2022/06/19 06:51:14;;;;;;;9.55;2.55;;;;;;;15.57;62.28;101112.94;5190570;28;20022;-73
2022/06/19 06:53:45;;;;;;;11.02;2.22;;;;;;;15.57;61.33;101099.78;5190389;28;20034;-75
2022/06/19 06:56:17;;;;;;;8.90;2.33;;;;;;;15.67;62.21;101086.34;5190931;28;20135;-75
2022/06/19 06:58:48;;;;;;;12.93;2.33;;;;;;;15.64;62.21;101091.69;5257086;28;20030;-74
2022/06/19 07:01:22;;;;;;;10.53;2.80;;;;;;;15.69;63.02;101076.66;5170251;28;20027;-74
2022/06/19 07:03:57;;;;;;;14.10;3.17;;;;;;;15.74;60.61;101057.28;5171873;28;20031;-75
2022/06/19 07:06:30;;;;;;;10.05;2.40;;;;;;;15.81;60.69;101071.97;5190038;28;20037;-77
2022/06/19 07:09:02;;;;;;;12.18;2.88;;;;;;;15.69;60.84;101068.78;5187856;28;20034;-79
2022/06/19 07:11:38;;;;;;;9.10;2.13;;;;;;;15.64;60.47;101075.09;5189928;28;20027;-79
2022/06/19 07:14:10;;;;;;;6.75;1.90;;;;;;;15.48;59.40;101103.56;5190488;28;20050;-78
2022/06/19 07:16:41;;;;;;;10.53;1.93;;;;;;;15.46;60.78;101119.38;5189997;28;20030;-78
2022/06/19 07:19:12;;;;;;;7.30;2.10;;;;;;;15.20;62.26;101134.94;5257762;28;20474;-76
2022/06/19 07:21:44;;;;;;;11.40;2.43;;;;;;;14.99;65.69;101118.00;5189478;28;20038;-75
2022/06/19 07:24:15;;;;;;;10.33;2.23;;;;;;;14.94;67.45;101112.88;5189115;28;20041;-76
2022/06/19 07:26:46;;;;;;;10.90;3.00;;;;;;;14.73;66.97;101075.78;5190759;28;20030;-77
2022/06/19 07:29:18;;;;;;;8.73;2.93;;;;;;;14.71;72.61;101046.09;5189312;28;20339;-76
2022/06/19 07:31:49;;;;;;;14.13;2.93;;;;;;;14.47;74.01;101023.06;5188869;28;20144;-77
2022/06/19 07:34:20;;;;;;;13.20;2.80;;;;;;;14.29;75.65;100992.94;5192100;28;20026;-75
2022/06/19 07:36:52;;;;;;;10.00;2.90;;;;;;;14.18;77.50;100974.84;5191577;28;20034;-75
2022/06/19 07:39:23;;;;;;;13.77;3.00;;;;;;;14.30;78.19;100974.53;5194760;28;20038;-79
2022/06/19 07:41:54;;;;;;;16.70;5.10;;;;;;;14.29;79.47;100966.72;5198142;28;20022;-79
2022/06/19 07:44:26;;;;;;;14.83;4.30;;;;;;;14.53;79.15;100947.72;5200332;28;20109;-80
2022/06/19 07:52:42;;;;;;;11.80;3.33;;;;;;;14.46;79.22;100975.00;5174987;28;20031;-80
2022/06/19 07:55:17;;;;;;;12.75;3.00;;;;;;;14.48;79.29;101045.78;5191298;28;20026;-80
2022/06/19 07:57:49;;;;;;;11.07;3.35;;;;;;;14.60;79.01;101069.09;5191649;28;20099;-82
2022/06/19 08:00:24;;;;;;;16.27;3.08;;;;;;;14.50;78.04;101101.69;5191373;28;20333;-82
2022/06/19 08:02:56;;;;;;;11.90;2.92;;;;;;;14.58;79.20;101076.97;5190961;28;20150;-82
2022/06/19 08:05:30;;;;;;;12.75;3.45;;;;;;;14.52;82.13;101040.44;5257953;28;20142;-79
2022/06/19 08:08:03;;;;;;;12.52;2.90;;;;;;;14.48;81.65;101017.78;5196637;28;20053;-79
2022/06/19 08:10:39;;;;;;;16.35;3.00;;;;;;;14.54;82.15;101025.50;5190429;28;20037;-77
2022/06/19 08:13:12;;;;;;;15.32;4.13;;;;;;;14.74;82.60;100979.56;5186660;28;20491;-78
2022/06/19 08:15:43;;;;;;;13.05;2.97;;;;;;;14.70;82.70;101005.03;5190247;28;20042;-79
2022/06/19 08:18:15;;;;;;;13.27;2.93;;;;;;;14.80;81.74;101062.53;5195084;28;20075;-85
2022/06/19 08:20:47;;;;;;;15.13;3.28;;;;;;;15.17;81.17;101035.28;5196162;28;20483;-82
2022/06/19 08:23:20;;;;;;;11.68;3.65;;;;;;;15.38;82.55;100984.75;5194342;28;20027;-85
2022/06/19 08:25:52;;;;;;;10.40;3.25;;;;;;;15.41;83.75;100991.69;5189688;28;20041;-85
2022/06/19 08:28:42;;;;;;;11.65;3.60;;;;;;;15.37;80.95;100979.53;5191299;28;20034;-85
2022/06/19 08:31:13;;;;;;;12.45;3.63;;;;;;;15.42;81.56;100961.88;5190707;28;20030;-86
2022/06/19 08:33:44;;;;;;;11.57;3.27;;;;;;;15.36;82.25;100967.31;5191277;28;20042;-81
2022/06/19 08:36:16;;;;;;;13.43;3.50;;;;;;;15.27;83.15;100964.06;5189589;28;20498;-77
2022/06/19 08:38:51;;;;;;;13.93;3.30;;;;;;;15.06;82.71;100941.91;5190672;28;20084;-86
2022/06/19 08:41:40;;;;;;;14.52;3.65;;;;;;;14.97;84.18;100936.06;5193251;28;20052;-78
2022/06/19 08:44:27;;;;;;;17.90;3.72;;;;;;;14.90;84.03;100923.09;5192643;28;20041;-81
2022/06/19 08:47:17;;;;;;;12.48;3.50;;;;;;;15.14;85.35;100883.94;5190575;28;20030;-82
2022/06/19 08:49:55;;;;;;;11.10;3.17;;;;;;;15.28;84.37;100865.13;5199780;28;20030;-82
2022/06/19 08:52:52;;;;;;;13.75;3.80;;;;;;;15.21;85.12;100882.81;5199586;28;20026;-81
2022/06/19 08:55:51;;;;;;;16.10;4.25;;;;;;;15.32;83.56;100916.63;5175700;28;20050;-84
2022/06/19 08:58:37;;;;;;;15.15;3.35;;;;;;;15.35;83.51;100918.31;5193589;28;20034;-82
2022/06/19 09:01:46;;;;;;;11.88;3.42;;;;;;;15.45;82.44;100919.75;5199479;28;20073;-85
2022/06/19 09:07:19;;;;;;;13.60;4.22;;;;;;;15.62;82.41;100935.00;5197815;28;20050;-82
2022/06/19 09:10:12;;;;;;;15.85;4.78;;;;;;;15.84;83.32;100964.09;5263034;28;20035;-82
2022/06/19 09:13:02;;;;;;;19.05;5.03;;;;;;;15.50;80.16;100975.63;5302707;28;20049;-82
2022/06/19 09:15:41;;;;;;;15.73;4.05;;;;;;;15.95;82.21;101009.31;5274369;28;20040;-82
2022/06/19 09:18:22;;;;;;;12.65;3.58;;;;;;;16.41;79.55;101043.81;5282216;28;20075;-82
2022/06/19 09:21:09;;;;;;;11.98;4.03;;;;;;;16.87;76.57;101063.34;5282022;28;20024;-84
2022/06/19 09:24:24;;;;;;;11.68;3.25;;;;;;;17.20;75.46;101055.16;5281149;28;20036;-85
2022/06/19 09:27:00;;;;;;;11.93;3.33;;;;;;;17.10;72.68;101053.78;5282350;28;20101;-81
2022/06/19 09:29:55;;;;;;;12.63;2.95;;;;;;;17.31;74.78;101044.22;5280504;28;20024;-85
2022/06/19 09:32:34;;;;;;;11.20;3.15;;;;;;;17.34;75.04;101035.34;5283821;28;20106;-84
2022/06/19 09:35:13;;;;;;;9.20;2.40;;;;;;;17.30;71.21;101024.91;5283772;28;20048;-86
2022/06/19 09:37:57;;;;;;;7.57;3.20;;;;;;;17.50;73.10;101020.69;5283950;28;20024;-85
2022/06/19 09:40:33;;;;;;;11.25;3.80;;;;;;;17.88;71.99;100999.06;5283389;28;20104;-82
2022/06/19 09:43:12;;;;;;;11.88;3.13;;;;;;;17.83;69.64;100986.88;5283330;28;20036;-84
2022/06/19 09:45:51;;;;;;;7.88;2.78;;;;;;;18.01;68.49;100976.53;5281452;28;20032;-85
2022/06/19 09:48:46;;;;;;;12.35;3.35;;;;;;;18.18;67.41;100962.66;5281997;28;20051;-87
2022/06/19 09:51:49;;;;;;;10.40;3.70;;;;;;;18.58;67.66;100940.69;5279215;28;20071;-84
2022/06/19 09:54:37;;;;;;;10.48;3.20;;;;;;;18.49;69.59;100953.44;5280324;28;20043;-86
2022/06/19 09:57:34;;;;;;;12.82;3.15;;;;;;;18.56;69.51;100960.16;5279022;28;20758;-86
2022/06/19 10:00:12;;;;;;;9.98;3.25;;;;;;;17.96;67.57;100937.16;5277648;28;20028;-82
2022/06/19 10:02:46;;;;;;;12.57;3.17;;;;;;;17.83;68.40;100920.09;5259792;28;20021;-83
2022/06/19 10:05:33;;;;;;;14.80;3.72;;;;;;;17.77;69.17;100921.19;5258580;28;20486;-84
2022/06/19 10:08:26;;;;;;;7.95;2.67;;;;;;;17.83;68.63;100915.66;5278461;28;20032;-83
2022/06/19 10:11:10;;;;;;;8.00;2.97;;;;;;;18.27;66.60;100912.13;5279477;28;20029;-86
2022/06/19 10:13:50;;;;;;;10.35;3.00;;;;;;;18.91;68.57;100892.59;5216117;28;20057;-84
2022/06/19 10:16:36;;;;;;;13.75;3.95;;;;;;;19.19;67.57;100886.03;5194285;28;20027;-83
2022/06/19 10:19:14;;;;;;;14.38;3.80;;;;;;;19.13;64.30;100895.09;5173982;28;20041;-81
2022/06/19 10:22:14;;;;;;;10.52;3.17;;;;;;;19.05;64.51;100891.13;5173210;28;20476;-82
2022/06/19 10:25:04;;;;;;;10.20;3.97;;;;;;;19.05;58.92;100888.47;5173891;28;20023;-82
2022/06/19 10:27:41;;;;;;;11.25;2.70;;;;;;;18.95;61.02;100878.34;5190334;28;20070;-84
2022/06/19 10:30:25;;;;;;;9.20;3.08;;;;;;;19.01;60.07;100885.09;5192636;28;20026;-83
2022/06/19 10:33:35;;;;;;;10.55;3.47;;;;;;;19.25;61.23;100911.31;5243898;28;20149;-83
2022/06/19 10:36:16;;;;;;;10.85;3.00;;;;;;;19.47;62.16;100930.50;5200574;28;20044;-83
2022/06/19 10:39:00;;;;;;;7.53;2.55;;;;;;;19.48;60.21;100926.06;5193264;28;20143;-79
2022/06/19 10:42:01;;;;;;;11.15;3.47;;;;;;;19.56;61.23;100904.56;5191876;28;20046;-80
2022/06/19 10:44:47;;;;;;;8.63;2.95;;;;;;;20.50;60.33;100895.44;5191539;28;20474;-80
2022/06/19 10:47:30;;;;;;;9.05;2.65;;;;;;;21.14;56.44;100895.59;5191493;28;20041;-81
2022/06/19 10:50:17;;;;;;;8.07;2.50;;;;;;;21.34;57.38;100905.06;5192702;28;20075;-80
2022/06/19 10:52:55;;;;;;;6.15;2.10;;;;;;;21.65;52.27;100913.97;5192157;28;20042;-78
2022/06/19 10:55:33;;;;;;;8.90;2.28;;;;;;;21.52;50.25;100931.53;5193055;28;20066;-79
2022/06/19 10:58:16;;;;;;;5.57;2.15;;;;;;;21.24;50.52;100949.78;5192798;28;20014;-77
2022/06/19 11:00:53;;;;;;;8.98;2.38;;;;;;;21.36;51.24;100956.19;5190645;28;20049;-79
2022/06/19 11:06:45;;;;;;;6.50;2.63;;;;;;;21.60;50.98;100959.31;5177586;28;20038;-81
2022/06/19 11:09:24;;;;;;;9.70;2.97;;;;;;;21.18;50.83;100959.88;5191965;28;20438;-83
2022/06/19 11:12:14;;;;;;;6.95;2.83;;;;;;;21.38;51.64;100951.69;5192054;28;20030;-81
2022/06/19 11:14:53;;;;;;;6.13;1.80;;;;;;;21.42;51.32;100961.16;5290450;28;20121;-80
2022/06/19 11:17:30;;;;;;;5.80;2.10;;;;;;;21.42;47.51;100969.13;5189263;28;20041;-81
2022/06/19 11:20:16;;;;;;;8.43;2.15;;;;;;;21.78;49.48;100991.94;5189255;28;20050;-79
2022/06/19 11:22:59;;;;;;;5.60;2.15;;;;;;;21.02;47.94;101010.22;5188292;28;20045;-79
2022/06/19 11:25:39;;;;;;;6.85;2.22;;;;;;;21.26;51.67;100995.63;5188595;28;20042;-79
2022/06/19 11:28:15;;;;;;;8.05;2.53;;;;;;;21.45;52.13;100990.16;5188753;28;20042;-80
2022/06/19 11:30:52;;;;;;;5.43;2.00;;;;;;;21.30;47.12;100986.56;5190558;28;20026;-77
2022/06/19 11:33:30;;;;;;;7.15;2.47;;;;;;;21.76;50.43;101001.75;5192340;28;20030;-80
2022/06/19 11:36:06;;;;;;;9.20;2.58;;;;;;;22.12;50.07;101003.28;5191145;28;20037;-84
2022/06/19 11:38:45;;;;;;;5.15;2.13;;;;;;;22.62;51.65;101006.59;5191974;28;20042;-84
2022/06/19 11:41:33;;;;;;;6.38;2.42;;;;;;;22.62;48.56;101003.03;5191982;28;20034;-83
2022/06/19 11:44:17;;;;;;;7.90;2.53;;;;;;;22.57;49.03;100985.59;5195872;28;20113;-84
2022/06/19 11:46:52;;;;;;;7.03;2.58;;;;;;;22.52;47.91;100990.34;5192765;28;20052;-82
2022/06/19 11:49:26;;;;;;;8.40;2.47;;;;;;;22.56;46.10;101006.94;5191623;28;20030;-79
2022/06/19 11:52:04;;;;;;;6.60;2.42;;;;;;;22.52;48.77;101010.72;5191317;28;20034;-81
2022/06/19 11:54:43;;;;;;;6.10;2.20;;;;;;;22.55;46.21;101022.00;5191172;28;20571;-79
2022/06/19 11:57:23;;;;;;;9.05;2.90;;;;;;;22.75;47.63;101025.31;5191500;28;20026;-78
2022/06/19 11:59:57;;;;;;;8.07;2.78;;;;;;;22.36;46.07;101042.63;5191294;28;20406;-81
2022/06/19 12:02:38;;;;;;;7.80;2.55;;;;;;;22.48;46.96;101033.97;5191191;28;20037;-79
2022/06/19 12:05:25;;;;;;;7.22;2.97;;;;;;;22.27;46.06;101048.47;5190752;28;20083;-81
2022/06/19 12:08:06;;;;;;;8.27;3.15;;;;;;;22.17;49.57;101054.28;5191050;28;20026;-76
2022/06/19 12:10:40;;;;;;;7.55;2.72;;;;;;;22.15;47.57;101064.16;5192720;28;20058;-80
2022/06/19 12:13:22;;;;;;;7.00;2.70;;;;;;;21.56;47.05;101086.88;5190659;28;20046;-80
2022/06/19 12:16:02;;;;;;;9.55;2.95;;;;;;;21.63;49.05;101101.53;5190608;28;20026;-79